532-й км

Карта отелей и гостиниц, располагающихся рядом с аэропортом 532-й км :

532-й км Ханты-Мансийский автономный округ - Югра 62° 51' 59.22" N, 64° 57' 16.8012" E
532-й км Ханты-Мансийский автономный округ - Югра 62° 51' 59.22" N, 64° 57' 16.8012" E
Код аэродрома ИКАО
HBA8
Код аэродрома RU
ХБА8
Координаты
N62.86645° E064.95467°
Превышение над уровнем моря
8
Основная полоса
13/31
Курс магнитный
125,3/305,3
Длина основной ВПП
25
Ширина основной ВПП
25
Покрытие основной ВПП
Твёрдое
Освещение ВПП
По запросу
Тип: 
Вертодром
Класс аэродрома: 
Принадлежность: 
ГА
Статус: 
Действующий
Сайт: 
E-mail аэродрома: 
Страна: 
Россия
Регион: 
Ханты-Мансийский автономный округ - Югра
Город: 
Дополнительная информация: 
Оператор: нет данных.

Найти трансфер

С помощью этой формы Вы можете найти трансфер из аэропорта 532-й км в город, аэропорт или вокзал:

Карта места

Javascript is required to view this map.

Погода в аэропортах:

Авиационная погода в Закаталы

Регион: 
Погода METAR: 
UBBY 171600Z 09008KT 9999 VCTS SCT035CB OVC080 20/17 Q1017 R33/////// NOSIG RMK MT OBSC
Время наблюдения
2021-09-17T16:00:00Z
Температура C
20.0
Точка росы
17.0
Направление ветра
90
Скорость ветра (узлы)
8
Метео видимость
6.21
Явления погоды
VCTS
Условия полета
VFR

Авиационная погода в Брянске

Регион: 
Погода METAR: 
UUBP 171530Z AUTO 06004MPS 9000 -RA 07/07 Q1015 RMK QFE744/0992
Время наблюдения
2021-09-17T15:30:00Z
Температура C
7.0
Точка росы
7.0
Направление ветра
60
Скорость ветра (узлы)
8
Метео видимость
5.59
Явления погоды
-RA
Условия полета
Аэропорт подробнее: 

Авиационная погода в Толмачево

Регион: 
Погода METAR: 
UNNT 171530Z 28004MPS 9999 -SHRA BKN060CB 17/09 Q0997 R25/290160 R34/////// NOSIG RMK QFE738/0984
Время наблюдения
2021-09-17T15:30:00Z
Температура C
17.0
Точка росы
9.0
Направление ветра
280
Скорость ветра (узлы)
8
Метео видимость
6.21
Явления погоды
-SHRA
Условия полета
VFR
Аэропорт подробнее: 

Авиационная погода в Екатеринбурге

Регион: 
Погода METAR: 
USSS 171530Z 34002MPS 290V030 9999 -SHRA BKN019CB 07/04 Q1006 R26L/290050 R26R/290032 NOSIG RMK QFE734/0979
Время наблюдения
2021-09-17T15:30:00Z
Температура C
7.0
Точка росы
4.0
Направление ветра
340
Скорость ветра (узлы)
4
Метео видимость
6.21
Явления погоды
-SHRA
Условия полета
MVFR
Аэропорт подробнее: